Hooper Bay, AK

12:31 PM AKDT on May 29, 2015 (GMT -0800)
Hooper Bay | | Change Station
CLOSE
Current Station
Airport
Location: Hooper Bay,
Elevation: 16 ft
Nearby Weather Stations

Elev 16 ft 61.52 °N, 166.15 °W | Updated 15 minutes ago

Overcast
Overcast
48 °F
Feels Like 48 °F
N
24
Wind Variable Wind from SE
Gusts 30 mph

Today
High -- | Low -- °F
--% Chance of Precip.
Yesterday
High -- | Low -- °F
Precip. -- in
5:42 AM 0:22 AM
Waxing Gibbous, 85% visible
Pressure 30.08 in
Visibility 10.0 miles
Clouds Overcast 2600 ft
Dew Point 45 °F
Humidity 87%
Rainfall 0.00 in
Snow Depth Not available.
UV 2 out of 12
Pollen Not available.
Air Quality Not available.
Flu Activity Local Activity
METAR PAHP 292016Z AUTO 13021G26KT 10SM OVC026 09/07 A3008 RMK AO1

More Conditions Fewer Conditions

Pressure 30.08 in
Visibility 10.0 miles
Clouds Overcast 2600 ft
Dew Point 45 °F
Humidity 87%
Rainfall 0.00 in
Snow Depth Not available.
UV 2 out of 12
Pollen Not available.
Air Quality Not available.
Flu Activity Local Activity
METAR PAHP 292016Z AUTO 13021G26KT 10SM OVC026 09/07 A3008 RMK AO1

More Conditions Fewer Conditions

10-Day Weather Forecast

Almanac

Astronomy

May. 29, 2015 Rise Set
Actual Time
Civil Twilight
Nautical Twilight
Astronomical Twilight
Moon
Length of Visible Light
Length of Day
Tomorrow will be .
, % of the Moon is Illuminated

Today's Extremes

State Highs State Lows

Community

WunderPhotos

Upload Photos

1,825,347 photos uploaded!

WunderBlogs® & News

Nearby

Air Quality

  Air Quality AQ Index Pollutant
Not available.

Snow Depth

Station Depth Elevation

Earthquake Activity

City Distance Mag. Time & Date
Minimum magnitude displayed is 2.5.

Coastal Water Temperatures

Place Temperature

Stations

Nearby Weather Stations

Station Location Temp. Windchill Dew Point Humidity Wind Precip. Elev Updated Type